X  Fermer Données météorologiques d'aviation de Metar     ETAR Ramstein Air Base
Température
7°C Température
1°C Point de rosée
66% Humidité



Vent
3 MPH
5 KM/H
1 M/S
3 KTS



360°
N
Conditions actuelles

Légère  Pluie Légère Pluie
Pression 1019.64 (hPa) - 30.11 (inHg)
Visibilité 6 (mile) - 9.7 (km)
Aéroport
Code de l'aéroport ETAR

Emplacement: Ramstein Air Base
Distance: 25 (mi)

Metar:
ETAR 200948Z AUTO 36003KT 9999 -RA FEW026 SCT035 BKN049 07/01 A3011 RMK AO2 RAB48 SLP204 $

Temps: 20-04-2024 11:48 CEST